createdAt,value
2018-11-13T00:01:16.301Z,100146.38
2018-11-13T00:03:44.819Z,100158.89
2018-11-13T00:06:12.299Z,100164.70
2018-11-13T00:08:40.771Z,100167.37
2018-11-13T00:11:08.267Z,100179.73
2018-11-13T00:13:36.219Z,100174.05
2018-11-13T00:16:03.696Z,100176.83
2018-11-13T00:18:31.194Z,100176.11
2018-11-13T00:21:00.260Z,100176.59
2018-11-13T00:23:28.363Z,100179.52
2018-11-13T00:25:55.916Z,100184.14
2018-11-13T00:28:23.386Z,100186.45
2018-11-13T00:30:50.905Z,100186.20
2018-11-13T00:33:18.411Z,100194.69
2018-11-13T00:35:45.952Z,100196.28
2018-11-13T00:38:13.450Z,100197.26
2018-11-13T00:40:41.970Z,100192.90
2018-11-13T00:43:09.443Z,100199.18
2018-11-13T00:45:38.130Z,100196.51
2018-11-13T00:48:05.583Z,100193.63
2018-11-13T00:50:33.104Z,100194.10
2018-11-13T00:53:00.581Z,100185.73
2018-11-13T00:55:28.091Z,100184.52
2018-11-13T00:57:56.222Z,100185.50
2018-11-13T01:00:23.723Z,100183.45
2018-11-13T01:02:51.767Z,100177.25
2018-11-13T01:05:20.556Z,100177.86
2018-11-13T01:07:49.100Z,100173.14
2018-11-13T01:10:17.731Z,100181.15
2018-11-13T01:12:46.418Z,100182.59
2018-11-13T01:15:15.001Z,100182.71
2018-11-13T01:17:43.228Z,100170.34
2018-11-13T01:20:11.362Z,100165.63
2018-11-13T01:22:38.910Z,100152.77
2018-11-13T01:25:06.480Z,100153.38
2018-11-13T01:27:34.392Z,100152.16
2018-11-13T01:30:02.529Z,100146.83
2018-11-13T01:32:33.592Z,100133.88
2018-11-13T01:35:01.172Z,100146.47
2018-11-13T01:37:29.334Z,100135.44
2018-11-13T01:39:56.905Z,100142.11
2018-11-13T01:42:25.755Z,100144.78
2018-11-13T01:44:53.461Z,100148.31
2018-11-13T01:47:22.684Z,100153.64
2018-11-13T01:49:50.525Z,100173.14
2018-11-13T01:52:18.069Z,100172.31
2018-11-13T01:54:45.621Z,100184.17
2018-11-13T01:57:13.580Z,100189.51
2018-11-13T01:59:40.825Z,100190.98
2018-11-13T02:02:08.488Z,100193.15
2018-11-13T02:04:36.031Z,100198.12
2018-11-13T02:07:03.614Z,100205.77
2018-11-13T02:09:31.237Z,100205.84
2018-11-13T02:11:58.815Z,100202.10
2018-11-13T02:14:26.364Z,100204.05
2018-11-13T02:16:53.917Z,100203.44
2018-11-13T02:19:21.460Z,100216.42
2018-11-13T02:21:50.464Z,100203.66
2018-11-13T02:24:18.011Z,100199.81
2018-11-13T02:26:45.570Z,100190.08
2018-11-13T02:29:13.158Z,100194.23
2018-11-13T02:31:40.719Z,100201.73
2018-11-13T02:34:08.264Z,100189.36
2018-11-13T02:36:36.404Z,100191.92
2018-11-13T02:39:04.400Z,100203.81
2018-11-13T02:41:31.963Z,100212.64
2018-11-13T02:43:59.598Z,100214.33
2018-11-13T02:46:27.697Z,100212.03
2018-11-13T02:48:56.537Z,100205.36
2018-11-13T02:51:24.148Z,100204.53
2018-11-13T02:53:51.692Z,100204.02
2018-11-13T02:56:19.665Z,100205.36
2018-11-13T02:58:47.220Z,100200.53
2018-11-13T03:01:14.767Z,100186.69
2018-11-13T03:03:43.916Z,100168.03
2018-11-13T03:06:11.488Z,100167.67
2018-11-13T03:08:43.437Z,100160.17
2018-11-13T03:11:10.974Z,100149.62
2018-11-13T03:13:38.542Z,100160.75
2018-11-13T03:16:06.252Z,100167.20
2018-11-13T03:18:33.788Z,100165.02
2018-11-13T03:21:01.966Z,100161.27
2018-11-13T03:23:29.535Z,100165.73
2018-11-13T03:25:57.512Z,100178.59
2018-11-13T03:28:25.068Z,100177.02
2018-11-13T03:30:53.316Z,100189.48
2018-11-13T03:33:22.547Z,100201.73
2018-11-13T03:35:51.024Z,100208.39
2018-11-13T03:38:18.576Z,100202.59
2018-11-13T03:40:46.601Z,100216.14
2018-11-13T03:43:14.212Z,100213.11
2018-11-13T03:45:41.763Z,100213.87
2018-11-13T03:48:09.352Z,100222.59
2018-11-13T03:50:37.989Z,100229.61
2018-11-13T03:53:06.172Z,100236.28
2018-11-13T03:55:34.560Z,100254.33
2018-11-13T03:58:03.232Z,100250.84
2018-11-13T04:00:31.393Z,100230.83
2018-11-13T04:02:58.928Z,100231.66
2018-11-13T04:05:26.488Z,100227.81
2018-11-13T04:07:54.980Z,100224.17
2018-11-13T04:10:22.977Z,100226.84
2018-11-13T04:12:50.552Z,100224.64
2018-11-13T04:15:20.287Z,100217.50
2018-11-13T04:17:48.573Z,100220.64
2018-11-13T04:20:18.349Z,100209.86
2018-11-13T04:22:46.172Z,100222.58
2018-11-13T04:25:14.694Z,100235.80
2018-11-13T04:27:42.279Z,100254.83
2018-11-13T04:30:10.421Z,100260.63
2018-11-13T04:32:38.195Z,100262.94
2018-11-13T04:35:05.824Z,100267.81
2018-11-13T04:37:33.504Z,100255.80
2018-11-13T04:40:04.071Z,100251.30
2018-11-13T04:42:31.639Z,100235.69
2018-11-13T04:45:00.913Z,100224.63
2018-11-13T04:47:28.515Z,100233.50
2018-11-13T04:50:00.077Z,100232.63
2018-11-13T04:52:28.052Z,100237.50
2018-11-13T04:54:55.592Z,100230.47
2018-11-13T04:57:23.117Z,100243.45
2018-11-13T04:59:52.411Z,100245.14
2018-11-13T05:02:19.950Z,100259.30
2018-11-13T05:04:47.519Z,100261.03
2018-11-13T05:07:15.040Z,100279.55
2018-11-13T05:09:42.564Z,100283.55
2018-11-13T05:12:10.129Z,100286.11
2018-11-13T05:14:37.716Z,100280.28
2018-11-13T05:17:05.282Z,100277.50
2018-11-13T05:19:32.873Z,100274.83
2018-11-13T05:22:00.773Z,100284.53
2018-11-13T05:24:28.374Z,100280.45
2018-11-13T05:26:55.910Z,100280.92
2018-11-13T05:29:23.760Z,100274.83
2018-11-13T05:31:52.548Z,100283.70
2018-11-13T05:34:20.076Z,100288.42
2018-11-13T05:36:49.312Z,100283.81
2018-11-13T05:39:16.860Z,100285.97
2018-11-13T05:41:44.451Z,100295.41
2018-11-13T05:44:12.449Z,100292.89
2018-11-13T05:46:40.406Z,100286.33
2018-11-13T05:49:07.942Z,100304.13
2018-11-13T05:51:35.809Z,100313.46
2018-11-13T05:54:03.627Z,100315.30
2018-11-13T05:56:31.314Z,100320.12
2018-11-13T05:58:59.173Z,100309.09
2018-11-13T06:01:26.724Z,100309.20
2018-11-13T06:03:55.400Z,100311.87
2018-11-13T06:06:23.463Z,100314.54
2018-11-13T06:08:51.120Z,100319.88
2018-11-13T06:11:19.581Z,100323.65
2018-11-13T06:13:47.674Z,100329.45
2018-11-13T06:16:15.755Z,100312.23
2018-11-13T06:18:43.325Z,100321.20
2018-11-13T06:21:12.027Z,100328.58
2018-11-13T06:23:40.085Z,100316.47
2018-11-13T06:26:07.672Z,100324.67
2018-11-13T06:28:35.603Z,100332.42
2018-11-13T06:31:04.304Z,100329.53
2018-11-13T06:33:31.853Z,100329.13
2018-11-13T06:35:59.811Z,100341.13
2018-11-13T06:38:27.376Z,100341.27
2018-11-13T06:40:54.992Z,100347.92
2018-11-13T06:43:22.810Z,100347.56
2018-11-13T06:45:50.368Z,100358.69
2018-11-13T06:48:18.938Z,100356.53
2018-11-13T06:50:46.827Z,100345.11
2018-11-13T06:53:14.354Z,100354.33
2018-11-13T06:55:44.757Z,100357.00
2018-11-13T06:58:12.716Z,100355.42
2018-11-13T07:00:40.272Z,100369.35
2018-11-13T07:03:07.837Z,100373.84
2018-11-13T07:05:36.920Z,100379.05
2018-11-13T07:08:04.539Z,100383.30
2018-11-13T07:10:32.146Z,100378.70
2018-11-13T07:13:00.213Z,100383.21
2018-11-13T07:15:29.031Z,100386.13
2018-11-13T07:17:58.507Z,100386.50
2018-11-13T07:20:27.601Z,100382.61
2018-11-13T07:22:55.172Z,100385.27
2018-11-13T07:25:22.894Z,100389.77
2018-11-13T07:27:54.704Z,100393.77
2018-11-13T07:30:26.495Z,100394.73
2018-11-13T07:32:54.355Z,100399.20
2018-11-13T07:35:22.641Z,100397.14
2018-11-13T07:37:52.158Z,100400.02
2018-11-13T07:40:21.166Z,100399.39
2018-11-13T07:42:48.813Z,100403.39
2018-11-13T07:45:16.617Z,100410.19
2018-11-13T07:47:45.857Z,100406.05
2018-11-13T07:50:16.894Z,100410.42
2018-11-13T07:52:45.038Z,100417.84
2018-11-13T07:55:13.599Z,100413.50
2018-11-13T07:57:42.776Z,100426.48
2018-11-13T08:00:11.966Z,100427.23
2018-11-13T08:02:40.235Z,100428.52
2018-11-13T08:05:07.807Z,100438.69
2018-11-13T08:07:36.198Z,100428.54
2018-11-13T08:10:04.253Z,100440.09
2018-11-13T08:12:31.823Z,100436.95
2018-11-13T08:14:59.716Z,100446.92
2018-11-13T08:17:27.244Z,100442.91
2018-11-13T08:19:55.539Z,100451.31
2018-11-13T08:22:23.896Z,100455.20
2018-11-13T08:24:51.491Z,100457.37
2018-11-13T08:27:19.877Z,100445.12
2018-11-13T08:29:47.711Z,100461.02
2018-11-13T08:32:15.297Z,100463.55
2018-11-13T08:34:42.894Z,100468.27
2018-11-13T08:37:12.217Z,100475.31
2018-11-13T08:39:39.830Z,100474.59
2018-11-13T08:42:07.421Z,100478.38
2018-11-13T08:44:36.364Z,100471.55
2018-11-13T08:47:05.411Z,100469.02
2018-11-13T08:49:35.012Z,100466.46
2018-11-13T08:52:03.068Z,100461.95
2018-11-13T08:54:30.648Z,100471.20
2018-11-13T08:56:58.197Z,100466.97
2018-11-13T08:59:26.918Z,100474.60
2018-11-13T09:01:54.507Z,100482.64
2018-11-13T09:04:22.056Z,100476.20
2018-11-13T09:06:50.000Z,100474.77
2018-11-13T09:09:17.585Z,100487.87
2018-11-13T09:11:45.996Z,100492.97
2018-11-13T09:14:13.812Z,100499.03
2018-11-13T09:16:43.712Z,100502.09
2018-11-13T09:19:11.422Z,100505.36
2018-11-13T09:21:43.538Z,100497.45
2018-11-13T09:24:11.151Z,100507.77
2018-11-13T09:26:39.425Z,100505.33
2018-11-13T09:29:07.681Z,100491.87
2018-11-13T09:31:36.748Z,100500.84
2018-11-13T09:34:04.359Z,100502.49
2018-11-13T09:36:32.451Z,100511.05
2018-11-13T09:39:00.012Z,100513.23
2018-11-13T09:41:27.556Z,100510.96
2018-11-13T09:43:55.579Z,100512.52
2018-11-13T09:46:23.197Z,100514.92
2018-11-13T09:48:50.746Z,100516.73
2018-11-13T09:51:19.996Z,100514.73
2018-11-13T09:53:48.377Z,100530.44
2018-11-13T09:56:15.945Z,100529.08
2018-11-13T09:58:45.789Z,100526.23
2018-11-13T10:01:14.380Z,100533.83
2018-11-13T10:03:43.906Z,100530.38
2018-11-13T10:06:11.316Z,100530.91
2018-11-13T10:08:38.979Z,100529.59
2018-11-13T10:11:07.148Z,100535.30
2018-11-13T10:13:35.296Z,100540.30
2018-11-13T10:16:03.609Z,100542.34
2018-11-13T10:18:32.193Z,100544.40
2018-11-13T10:21:00.122Z,100543.91
2018-11-13T10:23:27.700Z,100538.91
2018-11-13T10:25:55.528Z,100537.23
2018-11-13T10:28:23.592Z,100536.28
2018-11-13T10:30:51.196Z,100532.36
2018-11-13T10:33:18.788Z,100533.20
2018-11-13T10:35:46.713Z,100533.44
2018-11-13T10:38:14.263Z,100526.59
2018-11-13T10:40:41.978Z,100536.77
2018-11-13T10:43:10.935Z,100533.95
2018-11-13T10:45:38.505Z,100529.45
2018-11-13T10:48:10.755Z,100531.42
2018-11-13T10:50:38.679Z,100528.48
2018-11-13T10:53:07.356Z,100521.64
2018-11-13T10:55:36.075Z,100515.83
2018-11-13T10:58:05.312Z,100520.00
2018-11-13T11:00:37.959Z,100523.84
2018-11-13T11:03:10.485Z,100529.10
2018-11-13T11:05:38.349Z,100535.50
2018-11-13T11:08:05.997Z,100539.63
2018-11-13T11:10:33.580Z,100530.49
2018-11-13T11:13:01.850Z,100542.36
2018-11-13T11:15:29.350Z,100527.34
2018-11-13T11:17:58.144Z,100532.45
2018-11-13T11:20:26.428Z,100527.11
2018-11-13T11:22:55.183Z,100525.87
2018-11-13T11:25:22.835Z,100521.83
2018-11-13T11:27:52.581Z,100523.02
2018-11-13T11:30:20.208Z,100519.33
2018-11-13T11:32:47.759Z,100524.34
2018-11-13T11:35:15.795Z,100534.59
2018-11-13T11:37:43.416Z,100524.07
2018-11-13T11:40:12.281Z,100537.88
2018-11-13T11:42:40.295Z,100533.14
2018-11-13T11:45:09.119Z,100548.40
2018-11-13T11:47:39.741Z,100550.70
2018-11-13T11:50:11.970Z,100552.67
2018-11-13T11:52:39.603Z,100554.12
2018-11-13T11:55:07.173Z,100558.76
2018-11-13T11:57:34.734Z,100567.41
2018-11-13T12:00:03.243Z,100558.63
2018-11-13T12:02:31.166Z,100572.77
2018-11-13T12:04:59.519Z,100570.08
2018-11-13T12:07:27.099Z,100566.67
2018-11-13T12:09:55.183Z,100563.50
2018-11-13T12:12:22.789Z,100580.88
2018-11-13T12:14:50.394Z,100575.02
2018-11-13T12:17:19.326Z,100579.73
2018-11-13T12:19:46.885Z,100583.00
2018-11-13T12:22:14.561Z,100597.60
2018-11-13T12:24:42.637Z,100598.36
2018-11-13T12:27:11.475Z,100595.23
2018-11-13T12:29:39.677Z,100605.06
2018-11-13T12:32:08.692Z,100615.16
2018-11-13T12:34:36.263Z,100609.16
2018-11-13T12:37:03.904Z,100606.81
2018-11-13T12:39:31.820Z,100606.70
2018-11-13T12:41:59.418Z,100610.83
2018-11-13T12:44:26.960Z,100614.96
2018-11-13T12:46:55.897Z,100618.86
2018-11-13T12:49:22.703Z,100618.23
2018-11-13T12:51:55.243Z,100624.96
2018-11-13T12:54:23.119Z,100624.00
2018-11-13T12:56:50.670Z,100629.72
2018-11-13T12:59:20.711Z,100626.06
2018-11-13T13:01:48.937Z,100619.84
2018-11-13T13:04:17.437Z,100623.86
2018-11-13T13:06:44.990Z,100617.05
2018-11-13T13:09:12.974Z,100634.95
2018-11-13T13:11:40.637Z,100634.14
2018-11-13T13:14:13.153Z,100629.25
2018-11-13T13:16:41.830Z,100635.34
2018-11-13T13:19:10.353Z,100640.09
2018-11-13T13:21:38.746Z,100632.67
2018-11-13T13:24:09.421Z,100633.37
2018-11-13T13:26:37.353Z,100646.72
2018-11-13T13:29:04.906Z,100645.00
2018-11-13T13:31:35.428Z,100633.55
2018-11-13T13:34:03.792Z,100644.47
2018-11-13T13:36:32.459Z,100645.19
2018-11-13T13:39:00.454Z,100651.26
2018-11-13T13:41:28.040Z,100660.02
2018-11-13T13:43:55.607Z,100658.70
2018-11-13T13:46:23.516Z,100666.41
2018-11-13T13:48:51.102Z,100669.34
2018-11-13T13:51:20.292Z,100679.97
2018-11-13T13:53:48.536Z,100687.42
2018-11-13T13:56:17.658Z,100682.91
2018-11-13T13:58:46.449Z,100681.72
2018-11-13T14:01:15.449Z,100692.56
2018-11-13T14:03:44.364Z,100692.54
2018-11-13T14:06:12.277Z,100698.66
2018-11-13T14:08:41.249Z,100707.41
2018-11-13T14:13:42.821Z,100708.27
2018-11-13T14:16:12.505Z,100716.52
2018-11-13T14:18:45.586Z,100713.97
2018-11-13T14:21:13.484Z,100715.31
2018-11-13T14:23:41.065Z,100715.05
2018-11-13T14:26:09.284Z,100723.59
2018-11-13T14:28:38.184Z,100724.31
2018-11-13T14:31:07.336Z,100721.27
2018-11-13T14:33:37.241Z,100734.99
2018-11-13T14:36:06.296Z,100732.07
2018-11-13T14:38:33.866Z,100736.08
2018-11-13T14:41:01.716Z,100740.60
2018-11-13T14:43:29.268Z,100741.55
2018-11-13T14:45:59.959Z,100749.70
2018-11-13T14:48:27.955Z,100755.17
2018-11-13T14:50:56.335Z,100753.72
2018-11-13T14:53:25.109Z,100761.84
2018-11-13T14:55:55.310Z,100769.97
2018-11-13T14:58:25.836Z,100773.47
2018-11-13T15:00:54.708Z,100773.32
2018-11-13T15:03:22.727Z,100789.82
2018-11-13T15:05:50.291Z,100782.47
2018-11-13T15:08:17.876Z,100800.17
2018-11-13T15:10:53.305Z,100805.60
2018-11-13T15:13:21.709Z,100807.52
2018-11-13T15:15:49.562Z,100815.48
2018-11-13T15:18:17.238Z,100823.61
2018-11-13T15:20:46.044Z,100830.23
2018-11-13T15:23:14.487Z,100830.70
2018-11-13T15:25:43.342Z,100833.67
2018-11-13T15:28:11.380Z,100842.79
2018-11-13T15:30:39.356Z,100845.19
2018-11-13T15:33:06.904Z,100852.34
2018-11-13T15:35:34.431Z,100848.20
2018-11-13T15:38:02.920Z,100858.70
2018-11-13T15:40:31.182Z,100860.98
2018-11-13T15:42:59.328Z,100856.70
2018-11-13T15:45:27.969Z,100862.64
2018-11-13T15:47:56.624Z,100863.61
2018-11-13T15:50:27.450Z,100864.81
2018-11-13T15:52:56.324Z,100869.31
2018-11-13T15:55:24.517Z,100875.81
2018-11-13T15:57:52.269Z,100877.48
2018-11-13T16:00:22.448Z,100877.34
2018-11-13T16:02:49.972Z,100885.34
2018-11-13T16:05:18.312Z,100892.25
2018-11-13T16:07:46.308Z,100893.86
2018-11-13T16:10:14.708Z,100895.20
2018-11-13T16:12:42.284Z,100903.44
2018-11-13T16:15:16.740Z,100904.96
2018-11-13T16:17:44.308Z,100903.26
2018-11-13T16:20:15.205Z,100912.73
2018-11-13T16:22:44.380Z,100915.96
2018-11-13T16:25:16.672Z,100911.81
2018-11-13T16:27:44.224Z,100917.62
2018-11-13T16:30:13.395Z,100918.81
2018-11-13T16:32:43.471Z,100918.63
2018-11-13T16:35:12.160Z,100929.52
2018-11-13T16:37:43.404Z,100930.67
2018-11-13T16:40:11.585Z,100932.23
2018-11-13T16:42:39.844Z,100941.58
2018-11-13T16:45:07.697Z,100942.59
2018-11-13T16:47:35.252Z,100941.31
2018-11-13T16:50:03.665Z,100948.03
2018-11-13T16:52:32.377Z,100944.30
2018-11-13T16:55:01.472Z,100942.97
2018-11-13T16:57:33.347Z,100946.97
2018-11-13T17:00:01.309Z,100954.39
2018-11-13T17:02:29.739Z,100957.33
2018-11-13T17:05:00.178Z,100956.59
2018-11-13T17:07:29.572Z,100955.48
2018-11-13T17:09:58.270Z,100956.36
2018-11-13T17:12:27.280Z,100966.88
2018-11-13T17:14:59.185Z,100970.70
2018-11-13T17:17:27.935Z,100971.52
2018-11-13T17:19:56.382Z,100974.92
2018-11-13T17:22:25.290Z,100977.53
2018-11-13T17:24:53.457Z,100979.73
2018-11-13T17:27:22.442Z,100978.42
2018-11-13T17:29:50.415Z,100983.23
2018-11-13T17:32:17.948Z,100983.41
2018-11-13T17:34:45.516Z,100982.58
2018-11-13T17:37:13.375Z,100990.76
2018-11-13T17:39:40.949Z,100983.44
2018-11-13T17:42:08.473Z,100992.61
2018-11-13T17:44:38.694Z,100991.58
2018-11-13T17:47:07.956Z,100998.05
2018-11-13T17:49:37.139Z,101004.05
2018-11-13T17:52:04.716Z,101007.89
2018-11-13T17:54:33.084Z,101003.70
2018-11-13T17:57:00.618Z,101012.65
2018-11-13T17:59:28.674Z,101011.13
2018-11-13T18:01:57.764Z,101014.00
2018-11-13T18:04:25.665Z,101012.38
2018-11-13T18:06:53.701Z,101012.75
2018-11-13T18:09:21.754Z,101009.63
2018-11-13T18:11:51.460Z,101016.00
2018-11-13T18:14:19.983Z,101014.75
2018-11-13T18:16:48.040Z,101015.05
2018-11-13T18:19:16.219Z,101016.21
2018-11-13T18:21:47.871Z,101010.80
2018-11-13T18:24:15.613Z,101013.35
2018-11-13T18:26:43.172Z,101016.39
2018-11-13T18:29:12.644Z,101021.26
2018-11-13T18:31:43.611Z,101019.17
2018-11-13T18:34:11.839Z,101022.88
2018-11-13T18:36:41.260Z,101023.84
2018-11-13T18:39:09.277Z,101023.84
2018-11-13T18:41:38.176Z,101023.17
2018-11-13T18:44:08.859Z,101026.80
2018-11-13T18:46:36.385Z,101022.80
2018-11-13T18:49:05.833Z,101031.62
2018-11-13T18:51:37.212Z,101033.83
2018-11-13T18:54:08.187Z,101039.73
2018-11-13T18:56:36.924Z,101036.78
2018-11-13T18:59:04.577Z,101042.56
2018-11-13T19:01:32.231Z,101043.81
2018-11-13T19:04:01.989Z,101039.23
2018-11-13T19:06:29.540Z,101053.30
2018-11-13T19:08:57.320Z,101051.59
2018-11-13T19:11:27.364Z,101056.17
2018-11-13T19:13:55.938Z,101057.50
2018-11-13T19:16:24.328Z,101060.75
2018-11-13T19:18:52.637Z,101067.86
2018-11-13T19:21:20.108Z,101065.28
2018-11-13T19:23:50.774Z,101067.20
2018-11-13T19:26:21.042Z,101067.20
2018-11-13T19:28:49.453Z,101071.19
2018-11-13T19:31:17.972Z,101066.82
2018-11-13T19:33:46.630Z,101069.11
2018-11-13T19:36:16.095Z,101065.20
2018-11-13T19:38:49.310Z,101068.81
2018-11-13T19:41:19.401Z,101081.17
2018-11-13T19:43:48.113Z,101081.38
2018-11-13T19:46:17.265Z,101081.77
2018-11-13T19:48:46.861Z,101081.38
2018-11-13T19:51:15.234Z,101084.05
2018-11-13T19:53:42.800Z,101094.20
2018-11-13T19:56:11.363Z,101092.79
2018-11-13T19:58:38.907Z,101095.25
2018-11-13T20:01:06.475Z,101100.33
2018-11-13T20:03:40.516Z,101096.22
2018-11-13T20:06:12.169Z,101097.92
2018-11-13T20:08:40.049Z,101097.09
2018-11-13T20:11:09.426Z,101104.58
2018-11-13T20:13:38.305Z,101104.78
2018-11-13T20:16:07.781Z,101108.98
2018-11-13T20:18:35.364Z,101113.89
2018-11-13T20:21:04.227Z,101109.52
2018-11-13T20:23:33.225Z,101111.44
2018-11-13T20:26:02.282Z,101110.30
2018-11-13T20:28:31.357Z,101114.67
2018-11-13T20:31:02.754Z,101113.34
2018-11-13T20:33:30.515Z,101114.30
2018-11-13T20:35:59.585Z,101120.66
2018-11-13T20:38:29.210Z,101126.28
2018-11-13T20:40:57.791Z,101126.08
2018-11-13T20:43:28.964Z,101127.03
2018-11-13T20:45:56.696Z,101130.53
2018-11-13T20:48:27.757Z,101132.73
2018-11-13T20:50:55.300Z,101133.33
2018-11-13T20:53:23.169Z,101132.75
2018-11-13T20:55:51.384Z,101136.29
2018-11-13T20:58:18.938Z,101127.34
2018-11-13T21:00:46.798Z,101130.55
2018-11-13T21:03:17.330Z,101137.48
2018-11-13T21:05:47.099Z,101131.23
2018-11-13T21:08:15.648Z,101132.72
2018-11-13T21:10:45.344Z,101128.34
2018-11-13T21:13:12.891Z,101134.33
2018-11-13T21:15:40.732Z,101137.95
2018-11-13T21:18:08.328Z,101134.98
2018-11-13T21:20:37.452Z,101141.27
2018-11-13T21:23:05.595Z,101146.59
2018-11-13T21:25:33.117Z,101145.27
2018-11-13T21:28:01.936Z,101142.60
2018-11-13T21:30:29.875Z,101141.35
2018-11-13T21:32:57.621Z,101149.17
2018-11-13T21:35:25.188Z,101148.98
2018-11-13T21:37:54.513Z,101144.33
2018-11-13T21:40:24.392Z,101137.59
2018-11-13T21:42:52.675Z,101149.19
2018-11-13T21:45:21.676Z,101142.53
2018-11-13T21:47:49.259Z,101146.99
2018-11-13T21:50:18.126Z,101145.94
2018-11-13T21:52:47.750Z,101148.77
2018-11-13T21:55:15.739Z,101152.95
2018-11-13T21:57:44.436Z,101158.77
2018-11-13T22:00:12.386Z,101153.61
2018-11-13T22:02:39.910Z,101157.59
2018-11-13T22:05:07.420Z,101155.02
2018-11-13T22:07:35.311Z,101157.98
2018-11-13T22:10:03.603Z,101162.19
2018-11-13T22:12:31.284Z,101154.96
2018-11-13T22:14:58.886Z,101147.27
2018-11-13T22:17:26.818Z,101149.36
2018-11-13T22:19:54.329Z,101155.17
2018-11-13T22:22:21.837Z,101155.34
2018-11-13T22:24:49.768Z,101153.70
2018-11-13T22:27:17.475Z,101158.47
2018-11-13T22:29:45.549Z,101159.20
2018-11-13T22:32:14.347Z,101160.62
2018-11-13T22:34:42.347Z,101150.55
2018-11-13T22:37:09.846Z,101155.95
2018-11-13T22:39:37.435Z,101159.86
2018-11-13T22:42:05.496Z,101159.40
2018-11-13T22:44:32.985Z,101164.88
2018-11-13T22:47:00.523Z,101165.00
2018-11-13T22:49:28.012Z,101168.39
2018-11-13T22:51:57.059Z,101164.97
2018-11-13T22:54:24.525Z,101166.38
2018-11-13T22:56:52.000Z,101170.06
2018-11-13T22:59:19.911Z,101174.70
2018-11-13T23:01:47.525Z,101179.27
2018-11-13T23:04:15.021Z,101183.31
2018-11-13T23:06:42.528Z,101186.05
2018-11-13T23:09:13.510Z,101181.78
2018-11-13T23:11:42.464Z,101180.84
2018-11-13T23:14:09.977Z,101185.02
2018-11-13T23:16:37.827Z,101185.73
2018-11-13T23:19:05.304Z,101196.37
2018-11-13T23:21:32.792Z,101194.59
2018-11-13T23:24:00.265Z,101192.08
2018-11-13T23:26:28.122Z,101188.63
2018-11-13T23:28:55.606Z,101193.00
2018-11-13T23:31:23.106Z,101198.33
2018-11-13T23:36:23.833Z,101190.98
2018-11-13T23:38:51.806Z,101191.64
2018-11-13T23:41:19.273Z,101191.44
2018-11-13T23:43:49.736Z,101200.53
2018-11-13T23:46:17.576Z,101195.84
2018-11-13T23:48:47.220Z,101204.40
2018-11-13T23:51:15.381Z,101211.69
2018-11-13T23:53:44.049Z,101208.27
2018-11-13T23:56:11.794Z,101215.07
2018-11-13T23:58:39.301Z,101211.72
